createdAt,value
2023-07-14T00:02:25.943Z,2.90
2023-07-14T00:05:42.237Z,3.13
2023-07-14T00:08:40.515Z,2.97
2023-07-14T00:11:41.171Z,2.47
2023-07-14T00:14:42.476Z,3.10
2023-07-14T00:17:50.304Z,2.90
2023-07-14T00:21:06.590Z,3.00
2023-07-14T00:24:13.203Z,2.58
2023-07-14T00:27:46.603Z,3.28
2023-07-14T00:32:17.629Z,3.90
2023-07-14T00:35:01.335Z,3.35
2023-07-14T00:38:38.839Z,3.50
2023-07-14T00:41:59.918Z,3.95
2023-07-14T00:45:18.621Z,3.60
2023-07-14T00:49:09.523Z,4.13
2023-07-14T00:52:28.653Z,4.90
2023-07-14T00:57:05.553Z,4.00
2023-07-14T00:59:59.016Z,3.97
2023-07-14T01:03:53.381Z,5.05
2023-07-14T01:07:18.758Z,4.80
2023-07-14T01:10:42.672Z,4.60
2023-07-14T01:17:44.461Z,4.75
2023-07-14T01:21:14.842Z,4.78
2023-07-14T01:24:37.565Z,4.45
2023-07-14T01:28:04.155Z,5.05
2023-07-14T01:31:41.440Z,4.57
2023-07-14T01:35:04.555Z,5.47
2023-07-14T01:38:23.693Z,4.78
2023-07-14T01:41:21.217Z,4.75
2023-07-14T01:44:33.978Z,4.53
2023-07-14T01:47:43.195Z,5.03
2023-07-14T01:50:50.638Z,5.53
2023-07-14T01:53:51.795Z,5.72
2023-07-14T01:56:42.911Z,4.80
2023-07-14T01:59:52.309Z,5.32
2023-07-14T02:06:43.426Z,6.07
2023-07-14T02:10:06.748Z,5.32
2023-07-14T02:13:09.585Z,5.10
2023-07-14T02:16:19.883Z,5.80
2023-07-14T02:19:32.515Z,5.35
2023-07-14T02:22:54.020Z,5.80
2023-07-14T02:26:19.452Z,6.15
2023-07-14T02:29:26.810Z,6.32
2023-07-14T02:32:27.431Z,6.28
2023-07-14T02:35:58.074Z,5.95
2023-07-14T02:39:22.406Z,5.50
2023-07-14T02:42:50.049Z,6.57
2023-07-14T02:45:56.362Z,6.50
2023-07-14T02:49:14.965Z,5.60
2023-07-14T02:52:14.273Z,6.05
2023-07-14T02:58:59.958Z,6.60
2023-07-14T03:02:55.330Z,5.35
2023-07-14T03:06:27.240Z,6.50
2023-07-14T03:09:49.893Z,5.38
2023-07-14T03:13:13.101Z,5.82
2023-07-14T03:16:12.967Z,4.95
2023-07-14T03:19:15.711Z,5.00
2023-07-14T03:22:26.264Z,5.05
2023-07-14T03:25:39.922Z,4.95
2023-07-14T03:29:04.326Z,5.13
2023-07-14T03:32:46.619Z,5.20
2023-07-14T03:36:01.142Z,5.22
2023-07-14T03:39:06.920Z,4.80
2023-07-14T03:42:28.546Z,4.45
2023-07-14T03:45:47.965Z,4.35
2023-07-14T03:52:44.306Z,5.05
2023-07-14T03:55:52.770Z,4.50
2023-07-14T04:02:23.433Z,4.32
2023-07-14T04:05:22.341Z,4.38
2023-07-14T04:08:26.504Z,4.05
2023-07-14T04:12:10.872Z,4.30
2023-07-14T04:15:39.293Z,4.65
2023-07-14T04:18:54.883Z,4.07
2023-07-14T04:22:16.497Z,4.82
2023-07-14T04:25:37.802Z,4.30
2023-07-14T04:28:47.901Z,4.43
2023-07-14T04:33:10.613Z,4.45
2023-07-14T04:35:24.340Z,3.60
2023-07-14T04:38:24.326Z,3.42
2023-07-14T04:41:33.964Z,3.95
2023-07-14T04:44:56.597Z,4.53
2023-07-14T04:48:06.349Z,4.05
2023-07-14T04:51:38.945Z,2.85
2023-07-14T04:55:10.697Z,3.53
2023-07-14T04:58:30.224Z,3.75
2023-07-14T05:01:44.329Z,3.00
2023-07-14T05:04:51.790Z,3.38
2023-07-14T05:08:21.918Z,2.65
2023-07-14T05:11:26.912Z,2.58
2023-07-14T05:15:40.296Z,2.17
2023-07-14T05:18:11.238Z,3.05
2023-07-14T05:21:35.366Z,3.08
2023-07-14T05:24:46.949Z,2.30
2023-07-14T05:27:53.091Z,1.95
2023-07-14T05:31:00.491Z,1.80
2023-07-14T05:34:49.802Z,1.70
2023-07-14T05:38:00.270Z,2.03
2023-07-14T05:41:07.575Z,1.48
2023-07-14T05:44:29.082Z,2.40
2023-07-14T05:48:10.374Z,1.45
2023-07-14T05:52:09.962Z,1.85
2023-07-14T05:56:46.339Z,1.70
2023-07-14T05:59:11.619Z,2.05
2023-07-14T06:06:16.651Z,1.52
2023-07-14T06:13:35.559Z,2.08
2023-07-14T06:16:44.872Z,1.77
2023-07-14T06:20:01.614Z,1.73
2023-07-14T06:23:43.404Z,2.20
2023-07-14T06:26:42.986Z,1.85
2023-07-14T06:29:54.422Z,2.50
2023-07-14T06:33:24.921Z,1.70
2023-07-14T06:36:44.427Z,1.80
2023-07-14T06:40:13.432Z,1.63
2023-07-14T06:43:37.828Z,1.88
2023-07-14T06:46:52.907Z,1.55
2023-07-14T06:53:19.150Z,1.30
2023-07-14T06:56:24.657Z,2.00
2023-07-14T06:59:42.615Z,2.03
2023-07-14T07:03:04.226Z,1.45
2023-07-14T07:06:08.647Z,1.55
2023-07-14T07:09:21.936Z,1.60
2023-07-14T07:13:09.464Z,1.88
2023-07-14T07:16:52.975Z,1.63
2023-07-14T07:23:23.521Z,1.40
2023-07-14T07:26:21.079Z,1.08
2023-07-14T07:29:34.074Z,1.08
2023-07-14T07:32:55.925Z,1.25
2023-07-14T07:39:39.870Z,1.15
2023-07-14T07:42:56.460Z,1.20
2023-07-14T07:46:33.829Z,1.00
2023-07-14T07:49:50.924Z,1.25
2023-07-14T07:53:54.052Z,1.05
2023-07-14T07:57:04.710Z,1.00
2023-07-14T08:00:04.308Z,0.93
2023-07-14T08:03:12.785Z,1.15
2023-07-14T08:06:19.413Z,0.85
2023-07-14T08:12:51.295Z,0.70
2023-07-14T08:16:14.752Z,0.80
2023-07-14T08:19:29.753Z,1.00
2023-07-14T08:22:47.534Z,0.73
2023-07-14T08:26:25.413Z,1.05
2023-07-14T08:29:37.649Z,0.77
2023-07-14T08:32:53.992Z,0.90
2023-07-14T08:36:03.793Z,1.00
2023-07-14T08:39:32.464Z,1.10
2023-07-14T08:42:39.494Z,0.90
2023-07-14T08:45:46.072Z,1.00
2023-07-14T08:48:52.884Z,0.95
2023-07-14T08:51:54.227Z,0.73
2023-07-14T08:55:28.446Z,0.95
2023-07-14T08:58:27.225Z,0.90
2023-07-14T09:01:53.262Z,1.00
2023-07-14T09:04:58.314Z,1.15
2023-07-14T09:08:26.168Z,1.15
2023-07-14T09:11:41.750Z,0.68
2023-07-14T09:15:03.269Z,0.90
2023-07-14T09:18:31.444Z,1.35
2023-07-14T09:21:38.422Z,1.70
2023-07-14T09:25:47.623Z,0.90
2023-07-14T09:29:34.230Z,0.65
2023-07-14T09:36:49.175Z,0.90
2023-07-14T09:39:54.714Z,0.98
2023-07-14T09:43:10.951Z,0.82
2023-07-14T09:46:32.055Z,0.80
2023-07-14T09:53:19.606Z,1.00
2023-07-14T09:56:34.121Z,1.15
2023-07-14T10:00:05.818Z,1.10
2023-07-14T10:03:09.710Z,0.95
2023-07-14T10:06:19.032Z,0.98
2023-07-14T10:09:34.665Z,1.23
2023-07-14T10:12:45.846Z,1.27
2023-07-14T10:18:57.419Z,1.00
2023-07-14T10:21:28.613Z,1.25
2023-07-14T10:24:03.204Z,0.98
2023-07-14T10:26:33.657Z,1.00
2023-07-14T10:30:38.177Z,1.20
2023-07-14T10:33:54.794Z,1.63
2023-07-14T10:36:54.483Z,1.05
2023-07-14T10:39:59.464Z,1.20
2023-07-14T10:42:55.759Z,1.23
2023-07-14T10:45:26.184Z,1.33
2023-07-14T10:47:56.547Z,1.20
2023-07-14T10:50:58.675Z,1.00
2023-07-14T10:54:17.465Z,0.82
2023-07-14T11:00:32.727Z,1.17
2023-07-14T11:04:00.233Z,1.10
2023-07-14T11:10:42.098Z,1.00
2023-07-14T11:13:18.473Z,0.93
2023-07-14T11:15:49.045Z,0.85
2023-07-14T11:18:27.515Z,0.70
2023-07-14T11:21:03.399Z,0.75
2023-07-14T11:23:36.163Z,0.85
2023-07-14T11:26:30.692Z,0.93
2023-07-14T11:30:01.452Z,0.60
2023-07-14T11:32:59.996Z,0.82
2023-07-14T11:36:28.919Z,0.90
2023-07-14T11:43:00.035Z,0.55
2023-07-14T11:43:28.070Z,0.80
2023-07-14T11:46:35.121Z,0.90
2023-07-14T11:49:25.103Z,1.00
2023-07-14T11:51:56.554Z,0.88
2023-07-14T11:54:27.670Z,0.90
2023-07-14T11:57:04.625Z,0.70
2023-07-14T11:59:34.927Z,1.00
2023-07-14T12:02:28.685Z,0.80
2023-07-14T12:05:00.406Z,0.80
2023-07-14T12:07:29.174Z,0.77
2023-07-14T12:10:36.992Z,0.80
2023-07-14T12:14:56.952Z,0.80
2023-07-14T12:17:08.208Z,0.70
2023-07-14T12:20:16.952Z,1.40
2023-07-14T12:23:48.796Z,0.98
2023-07-14T12:26:19.814Z,1.10
2023-07-14T12:28:52.375Z,0.95
2023-07-14T12:31:21.915Z,1.40
2023-07-14T12:33:50.580Z,1.30
2023-07-14T12:36:19.799Z,0.90
2023-07-14T12:38:49.518Z,1.00
2023-07-14T12:41:20.364Z,1.30
2023-07-14T12:43:50.658Z,0.90
2023-07-14T12:46:23.083Z,0.80
2023-07-14T12:49:00.775Z,1.00
2023-07-14T12:51:29.539Z,0.85
2023-07-14T12:54:00.434Z,0.70
2023-07-14T12:56:31.202Z,0.85
2023-07-14T12:59:01.112Z,0.70
2023-07-14T13:01:54.692Z,0.50
2023-07-14T13:04:58.760Z,0.73
2023-07-14T13:08:07.516Z,0.70
2023-07-14T13:11:11.344Z,0.73
2023-07-14T13:14:29.623Z,1.20
2023-07-14T13:17:45.082Z,1.20
2023-07-14T13:20:55.499Z,0.95
2023-07-14T13:24:08.366Z,1.00
2023-07-14T13:27:31.300Z,1.13
2023-07-14T13:30:47.877Z,0.90
2023-07-14T13:33:59.346Z,0.95
2023-07-14T13:37:25.645Z,0.90
2023-07-14T13:40:43.907Z,0.80
2023-07-14T13:44:11.599Z,1.20
2023-07-14T13:47:23.736Z,1.25
2023-07-14T13:53:39.283Z,1.60
2023-07-14T14:00:15.460Z,1.17
2023-07-14T14:06:55.217Z,1.45
2023-07-14T14:09:44.605Z,1.25
2023-07-14T14:12:13.623Z,1.60
2023-07-14T14:14:42.884Z,1.40
2023-07-14T14:17:21.827Z,1.40
2023-07-14T14:19:52.280Z,1.65
2023-07-14T14:22:20.912Z,1.75
2023-07-14T14:24:49.642Z,1.50
2023-07-14T14:27:18.470Z,1.27
2023-07-14T14:29:47.080Z,1.40
2023-07-14T14:32:17.318Z,1.50
2023-07-14T14:35:22.328Z,1.58
2023-07-14T14:38:54.490Z,1.52
2023-07-14T14:42:06.494Z,1.73
2023-07-14T14:44:36.460Z,1.67
2023-07-14T14:47:05.274Z,1.95
2023-07-14T14:49:33.871Z,1.63
2023-07-14T14:52:02.481Z,1.33
2023-07-14T14:54:31.030Z,1.92
2023-07-14T14:57:00.921Z,1.30
2023-07-14T14:59:29.531Z,1.80
2023-07-14T15:01:59.701Z,1.77
2023-07-14T15:04:30.343Z,1.55
2023-07-14T15:06:59.010Z,1.60
2023-07-14T15:09:27.623Z,1.67
2023-07-14T15:11:57.817Z,1.75
2023-07-14T15:14:32.087Z,1.23
2023-07-14T15:17:39.427Z,1.50
2023-07-14T15:21:53.463Z,1.83
2023-07-14T15:24:05.828Z,1.45
2023-07-14T15:27:22.114Z,1.85
2023-07-14T15:30:19.485Z,1.90
2023-07-14T15:33:46.669Z,1.23
2023-07-14T15:37:32.871Z,1.80
2023-07-14T15:40:34.592Z,1.70
2023-07-14T15:43:42.505Z,2.45
2023-07-14T15:50:22.470Z,1.70
2023-07-14T15:57:01.462Z,1.70
2023-07-14T16:00:46.418Z,1.92
2023-07-14T16:03:42.589Z,2.00
2023-07-14T16:07:09.651Z,1.77
2023-07-14T16:09:54.873Z,1.33
2023-07-14T16:12:55.599Z,1.40
2023-07-14T16:15:59.844Z,1.20
2023-07-14T16:18:30.088Z,1.52
2023-07-14T16:20:58.672Z,1.17
2023-07-14T16:23:28.965Z,1.55
2023-07-14T16:25:58.722Z,0.95
2023-07-14T16:28:28.072Z,1.10
2023-07-14T16:30:56.602Z,1.70
2023-07-14T16:33:24.886Z,1.08
2023-07-14T16:35:54.103Z,1.75
2023-07-14T16:38:25.584Z,1.50
2023-07-14T16:40:53.932Z,1.40
2023-07-14T16:43:23.837Z,1.35
2023-07-14T16:45:54.049Z,0.90
2023-07-14T16:48:22.427Z,1.27
2023-07-14T16:50:51.439Z,1.05
2023-07-14T16:53:21.516Z,1.63
2023-07-14T16:56:44.450Z,1.15
2023-07-14T16:59:50.792Z,1.00
2023-07-14T17:02:53.455Z,1.25
2023-07-14T17:06:00.850Z,1.20
2023-07-14T17:13:26.165Z,1.17
2023-07-14T17:16:56.455Z,1.33
2023-07-14T17:19:26.093Z,1.27
2023-07-14T17:21:59.815Z,1.00
2023-07-14T17:24:29.324Z,0.70
2023-07-14T17:26:57.936Z,1.25
2023-07-14T17:32:56.472Z,1.23
2023-07-14T17:32:58.845Z,0.77
2023-07-14T17:35:29.898Z,0.88
2023-07-14T17:37:59.167Z,0.82
2023-07-14T17:40:28.864Z,0.70
2023-07-14T17:42:57.818Z,0.82
2023-07-14T17:46:01.981Z,1.33
2023-07-14T17:49:07.540Z,0.93
2023-07-14T17:52:48.168Z,0.90
2023-07-14T17:59:10.940Z,1.15
2023-07-14T18:01:40.055Z,1.10
2023-07-14T18:04:08.612Z,0.82
2023-07-14T18:07:15.479Z,0.80
2023-07-14T18:17:36.784Z,0.90
2023-07-14T18:20:54.082Z,0.82
2023-07-14T18:24:09.090Z,1.00
2023-07-14T18:27:10.101Z,1.10
2023-07-14T18:30:31.355Z,1.10
2023-07-14T18:33:48.305Z,1.13
2023-07-14T18:37:01.045Z,1.05
2023-07-14T18:40:27.501Z,0.95
2023-07-14T18:47:30.801Z,1.13
2023-07-14T18:51:07.178Z,1.10
2023-07-14T18:54:24.239Z,1.05
2023-07-14T18:57:31.530Z,0.80
2023-07-14T19:00:32.902Z,0.57
2023-07-14T19:07:44.035Z,0.70
2023-07-14T19:10:53.042Z,1.08
2023-07-14T19:14:01.805Z,0.63
2023-07-14T19:20:41.744Z,0.60
2023-07-14T19:23:55.194Z,0.70
2023-07-14T19:27:51.800Z,0.90
2023-07-14T19:30:58.545Z,0.90
2023-07-14T19:34:12.716Z,0.95
2023-07-14T19:37:33.821Z,1.00
2023-07-14T19:40:48.525Z,1.02
2023-07-14T19:44:15.377Z,0.80
2023-07-14T19:47:50.577Z,0.60
2023-07-14T19:50:38.774Z,0.85
2023-07-14T19:53:17.466Z,1.05
2023-07-14T19:55:46.009Z,0.93
2023-07-14T19:58:14.872Z,0.80
2023-07-14T20:00:44.118Z,0.90
2023-07-14T20:03:19.728Z,1.10
2023-07-14T20:05:50.106Z,0.80
2023-07-14T20:08:23.005Z,0.90
2023-07-14T20:13:05.837Z,1.10
2023-07-14T20:15:16.723Z,0.95
2023-07-14T20:25:22.741Z,0.70
2023-07-14T20:28:54.254Z,0.82
2023-07-14T20:31:54.274Z,1.13
2023-07-14T20:38:42.164Z,1.20
2023-07-14T20:41:57.313Z,1.05
2023-07-14T20:45:05.926Z,1.15
2023-07-14T20:48:12.279Z,1.40
2023-07-14T20:51:33.761Z,1.20
2023-07-14T20:54:57.912Z,1.65
2023-07-14T20:58:10.393Z,0.77
2023-07-14T21:01:22.610Z,1.10
2023-07-14T21:04:30.378Z,1.10
2023-07-14T21:07:44.071Z,0.85
2023-07-14T21:10:55.719Z,1.23
2023-07-14T21:14:13.555Z,1.50
2023-07-14T21:17:29.939Z,1.38
2023-07-14T21:24:38.857Z,1.90
2023-07-14T21:31:14.696Z,2.20
2023-07-14T21:34:33.564Z,2.95
2023-07-14T21:38:04.890Z,2.90
2023-07-14T21:41:32.447Z,2.60
2023-07-14T21:44:39.918Z,2.80
2023-07-14T21:47:42.214Z,2.50
2023-07-14T21:50:57.818Z,2.95
2023-07-14T21:54:10.115Z,2.10
2023-07-14T21:57:22.325Z,1.40
2023-07-14T22:00:24.582Z,1.58
2023-07-14T22:03:37.555Z,1.60
2023-07-14T22:06:45.880Z,1.40
2023-07-14T22:09:58.250Z,1.42
2023-07-14T22:17:42.741Z,1.30
2023-07-14T22:25:00.335Z,1.08
2023-07-14T22:28:18.701Z,1.13
2023-07-14T22:34:55.140Z,1.17
2023-07-14T22:45:05.004Z,1.00
2023-07-14T22:48:32.673Z,0.80
2023-07-14T22:52:07.797Z,0.60
2023-07-14T22:55:18.148Z,1.05
2023-07-14T22:57:47.751Z,0.80
2023-07-14T23:00:18.175Z,0.70
2023-07-14T23:02:47.275Z,0.70
2023-07-14T23:05:17.864Z,0.60
2023-07-14T23:07:49.036Z,0.52
2023-07-14T23:10:18.587Z,0.73
2023-07-14T23:12:47.696Z,0.55
2023-07-14T23:15:18.954Z,0.55
2023-07-14T23:17:47.534Z,0.70
2023-07-14T23:21:19.364Z,0.77
2023-07-14T23:24:31.342Z,0.73
2023-07-14T23:26:59.678Z,0.90
2023-07-14T23:29:28.007Z,0.80
2023-07-14T23:31:56.459Z,0.90
2023-07-14T23:34:24.817Z,0.90
2023-07-14T23:36:53.898Z,0.70
2023-07-14T23:39:23.647Z,1.17
2023-07-14T23:41:54.178Z,1.05
2023-07-14T23:44:22.901Z,0.75
2023-07-14T23:46:51.596Z,0.70
2023-07-14T23:49:19.949Z,1.02
2023-07-14T23:52:33.887Z,0.75
2023-07-14T23:58:59.845Z,0.77
